createdAt,value
2022-08-16T00:00:49.061Z,9.757565
2022-08-16T00:01:48.031Z,9.757594
2022-08-16T00:02:48.237Z,9.757420
2022-08-16T00:03:48.008Z,9.757639
2022-08-16T00:04:47.995Z,9.757773
2022-08-16T00:05:48.973Z,9.757803
2022-08-16T00:06:48.975Z,9.757757
2022-08-16T00:07:47.959Z,9.757769
2022-08-16T00:08:47.958Z,9.757751
2022-08-16T00:09:47.947Z,9.757524
2022-08-16T00:10:47.933Z,9.757399
2022-08-16T00:11:47.957Z,9.757885
2022-08-16T00:12:48.055Z,9.758327
2022-08-16T00:13:53.803Z,9.757619
2022-08-16T00:14:48.905Z,9.757496
2022-08-16T00:15:51.827Z,9.757313
2022-08-16T00:17:00.777Z,9.757506
2022-08-16T00:17:56.612Z,9.757352
2022-08-16T00:18:48.876Z,9.757569
2022-08-16T00:19:53.380Z,9.757651
2022-08-16T00:20:48.863Z,9.757488
2022-08-16T00:21:53.170Z,9.757554
2022-08-16T00:22:48.972Z,9.757459
2022-08-16T00:23:47.845Z,9.757385
2022-08-16T00:24:47.821Z,9.757391
2022-08-16T00:26:34.498Z,9.757478
2022-08-16T00:26:48.834Z,9.757526
2022-08-16T00:27:47.801Z,9.757484
2022-08-16T00:28:47.792Z,9.757427
2022-08-16T00:30:09.057Z,9.757358
2022-08-16T00:30:48.775Z,9.757290
2022-08-16T00:32:01.197Z,9.757388
2022-08-16T00:32:48.978Z,9.757583
2022-08-16T00:33:50.003Z,9.757649
2022-08-16T00:34:53.567Z,9.757442
2022-08-16T00:35:49.819Z,9.757542
2022-08-16T00:36:47.755Z,9.757552
2022-08-16T00:37:58.628Z,9.757492
2022-08-16T00:38:48.717Z,9.757487
2022-08-16T00:39:56.986Z,9.757656
2022-08-16T00:40:53.533Z,9.757805
2022-08-16T00:41:48.734Z,9.757731
2022-08-16T00:42:47.753Z,9.757527
2022-08-16T00:43:48.670Z,9.757589
2022-08-16T00:44:47.681Z,9.757552
2022-08-16T00:45:58.053Z,9.757540
2022-08-16T00:46:52.896Z,9.757360
2022-08-16T00:47:49.615Z,9.757545
2022-08-16T00:48:47.634Z,9.757432
2022-08-16T00:49:56.648Z,9.757470
2022-08-16T00:50:48.610Z,9.757463
2022-08-16T00:51:53.774Z,9.757094
2022-08-16T00:52:50.909Z,9.757031
2022-08-16T00:53:47.600Z,9.757589
2022-08-16T00:54:47.585Z,9.757466
2022-08-16T00:55:47.565Z,9.757984
2022-08-16T00:56:57.824Z,9.757538
2022-08-16T00:58:00.035Z,9.757373
2022-08-16T00:58:48.544Z,9.757484
2022-08-16T00:59:59.024Z,9.757624
2022-08-16T01:00:54.362Z,9.757634
2022-08-16T01:01:48.559Z,9.757466
2022-08-16T01:02:48.908Z,9.757660
2022-08-16T01:03:47.508Z,9.757572
2022-08-16T01:05:09.413Z,9.757436
2022-08-16T01:05:48.480Z,9.757465
2022-08-16T01:06:49.321Z,9.757508
2022-08-16T01:07:51.193Z,9.757559
2022-08-16T01:08:47.471Z,9.757681
2022-08-16T01:09:47.451Z,9.757679
2022-08-16T01:10:47.445Z,9.757640
2022-08-16T01:11:54.143Z,9.757591
2022-08-16T01:12:48.602Z,9.757558
2022-08-16T01:13:47.421Z,9.757500
2022-08-16T01:14:47.411Z,9.757560
2022-08-16T01:15:47.400Z,9.757492
2022-08-16T01:16:48.422Z,9.757574
2022-08-16T01:17:47.381Z,9.757535
2022-08-16T01:18:48.381Z,9.757534
2022-08-16T01:19:47.366Z,9.757481
2022-08-16T01:20:47.369Z,9.757573
2022-08-16T01:21:47.372Z,9.757538
2022-08-16T01:22:50.107Z,9.757430
2022-08-16T01:24:00.807Z,9.757508
2022-08-16T01:24:55.491Z,9.757520
2022-08-16T01:25:59.807Z,9.757598
2022-08-16T01:26:48.312Z,9.757579
2022-08-16T01:27:47.329Z,9.757492
2022-08-16T01:28:47.286Z,9.757524
2022-08-16T01:29:58.181Z,9.757419
2022-08-16T01:30:49.600Z,9.757452
2022-08-16T01:31:47.276Z,9.757507
2022-08-16T01:32:47.416Z,9.757507
2022-08-16T01:33:49.715Z,9.757495
2022-08-16T01:34:53.684Z,9.757563
2022-08-16T01:35:52.859Z,9.757470
2022-08-16T01:36:48.228Z,9.757394
2022-08-16T01:37:54.046Z,9.757456
2022-08-16T01:38:51.254Z,9.757464
2022-08-16T01:39:48.243Z,9.757375
2022-08-16T01:40:47.202Z,9.757543
2022-08-16T01:41:47.199Z,9.757525
2022-08-16T01:42:48.070Z,9.757570
2022-08-16T01:43:47.168Z,9.757474
2022-08-16T01:44:48.155Z,9.757504
2022-08-16T01:45:47.149Z,9.757506
2022-08-16T01:46:48.155Z,9.757540
2022-08-16T01:47:49.579Z,9.757314
2022-08-16T01:48:47.127Z,9.757336
2022-08-16T01:50:42.430Z,9.757454
2022-08-16T01:51:09.168Z,9.757385
2022-08-16T01:51:48.091Z,9.757561
2022-08-16T01:52:47.183Z,9.757520
2022-08-16T01:53:55.294Z,9.757441
2022-08-16T01:54:48.074Z,9.757626
2022-08-16T01:55:54.040Z,9.757648
2022-08-16T01:56:48.054Z,9.757580
2022-08-16T01:57:53.478Z,9.757652
2022-08-16T01:58:48.287Z,9.757611
2022-08-16T01:59:47.028Z,9.757557
2022-08-16T02:00:47.026Z,9.757772
2022-08-16T02:01:49.606Z,9.757586
2022-08-16T02:02:52.318Z,9.757555
2022-08-16T02:03:50.360Z,9.757482
2022-08-16T02:04:49.725Z,9.757521
2022-08-16T02:05:52.028Z,9.757520
2022-08-16T02:06:47.969Z,9.757497
2022-08-16T02:07:46.989Z,9.757532
2022-08-16T02:08:46.948Z,9.757500
2022-08-16T02:09:57.457Z,9.757562
2022-08-16T02:10:47.935Z,9.757465
2022-08-16T02:11:48.520Z,9.757504
2022-08-16T02:12:52.548Z,9.757555
2022-08-16T02:13:48.917Z,9.757508
2022-08-16T02:14:47.898Z,9.757536
2022-08-16T02:15:46.888Z,9.757586
2022-08-16T02:16:46.891Z,9.757843
2022-08-16T02:17:46.902Z,9.757554
2022-08-16T02:18:47.874Z,9.757557
2022-08-16T02:19:59.813Z,9.757723
2022-08-16T02:20:47.846Z,9.757739
2022-08-16T02:22:09.354Z,9.757463
2022-08-16T02:22:48.188Z,9.757678
2022-08-16T02:23:46.827Z,9.757573
2022-08-16T02:24:47.817Z,9.757446
2022-08-16T02:25:52.350Z,9.757487
2022-08-16T02:26:48.807Z,9.757496
2022-08-16T02:27:47.951Z,9.757503
2022-08-16T02:28:47.112Z,9.757512
2022-08-16T02:29:46.776Z,9.757593
2022-08-16T02:30:50.800Z,9.757486
2022-08-16T02:32:03.717Z,9.757454
2022-08-16T02:32:50.819Z,9.757496
2022-08-16T02:33:50.000Z,9.757481
2022-08-16T02:34:46.734Z,9.757459
2022-08-16T02:35:53.970Z,9.757412
2022-08-16T02:36:50.868Z,9.757454
2022-08-16T02:37:52.338Z,9.757433
2022-08-16T02:38:47.724Z,9.757393
2022-08-16T02:39:46.739Z,9.757502
2022-08-16T02:40:47.691Z,9.757451
2022-08-16T02:41:46.677Z,9.757463
2022-08-16T02:42:49.677Z,9.757468
2022-08-16T02:43:46.683Z,9.757483
2022-08-16T02:44:46.660Z,9.757468
2022-08-16T02:45:46.633Z,9.757507
2022-08-16T02:46:50.585Z,9.757485
2022-08-16T02:48:00.116Z,9.757466
2022-08-16T02:48:49.391Z,9.757466
2022-08-16T02:49:59.320Z,9.757480
2022-08-16T02:50:55.332Z,9.757511
2022-08-16T02:51:47.587Z,9.757521
2022-08-16T02:52:46.631Z,9.757449
2022-08-16T02:53:46.652Z,9.757421
2022-08-16T02:54:46.604Z,9.757612
2022-08-16T02:55:50.526Z,9.757571
2022-08-16T02:56:47.855Z,9.757541
2022-08-16T02:57:54.174Z,9.757725
2022-08-16T02:58:47.654Z,9.757540
2022-08-16T02:59:46.512Z,9.757565
2022-08-16T03:00:50.068Z,9.757592
2022-08-16T03:01:46.579Z,9.757787
2022-08-16T03:02:46.744Z,9.757490
2022-08-16T03:04:29.125Z,9.757627
2022-08-16T03:04:52.574Z,9.757673
2022-08-16T03:05:49.844Z,9.757684
2022-08-16T03:06:46.465Z,9.757565
2022-08-16T03:07:51.032Z,9.757521
2022-08-16T03:08:51.848Z,9.757575
2022-08-16T03:09:47.428Z,9.757591
2022-08-16T03:10:46.448Z,9.757601
2022-08-16T03:11:46.414Z,9.757492
2022-08-16T03:12:55.645Z,9.757537
2022-08-16T03:13:47.610Z,9.757547
2022-08-16T03:14:46.390Z,9.757421
2022-08-16T03:15:46.390Z,9.757572
2022-08-16T03:16:58.677Z,9.757637
2022-08-16T03:17:53.745Z,9.757581
2022-08-16T03:18:47.381Z,9.757620
2022-08-16T03:19:48.028Z,9.757545
2022-08-16T03:20:55.452Z,9.757546
2022-08-16T03:21:47.321Z,9.757611
2022-08-16T03:22:46.442Z,9.757475
2022-08-16T03:23:46.339Z,9.757491
2022-08-16T03:24:46.322Z,9.757750
2022-08-16T03:25:48.431Z,9.757367
2022-08-16T03:26:46.300Z,9.757431
2022-08-16T03:27:46.276Z,9.757552
2022-08-16T03:28:46.344Z,9.757481
2022-08-16T03:29:54.714Z,9.757512
2022-08-16T03:30:47.442Z,9.757565
2022-08-16T03:31:46.244Z,9.757557
2022-08-16T03:32:47.989Z,9.757553
2022-08-16T03:33:46.257Z,9.757509
2022-08-16T03:34:49.883Z,9.757545
2022-08-16T03:35:46.203Z,9.757538
2022-08-16T03:36:46.255Z,9.757543
2022-08-16T03:38:02.873Z,9.757497
2022-08-16T03:38:47.219Z,9.757508
2022-08-16T03:39:46.202Z,9.757537
2022-08-16T03:40:46.170Z,9.757502
2022-08-16T03:41:50.241Z,9.757519
2022-08-16T03:43:18.648Z,9.757528
2022-08-16T03:43:51.379Z,9.757404
2022-08-16T03:44:49.515Z,9.757432
2022-08-16T03:45:46.143Z,9.757483
2022-08-16T03:46:49.914Z,9.757485
2022-08-16T03:47:46.106Z,9.757468
2022-08-16T03:48:46.122Z,9.757467
2022-08-16T03:49:46.082Z,9.757442
2022-08-16T03:50:59.499Z,9.757388
2022-08-16T03:51:47.070Z,9.757490
2022-08-16T03:52:46.224Z,9.757407
2022-08-16T03:53:46.086Z,9.757441
2022-08-16T03:54:53.264Z,9.757439
2022-08-16T03:55:47.051Z,9.757426
2022-08-16T03:56:56.997Z,9.757443
2022-08-16T03:57:52.161Z,9.757434
2022-08-16T03:58:48.443Z,9.757470
2022-08-16T03:59:46.001Z,9.757410
2022-08-16T04:00:46.067Z,9.757381
2022-08-16T04:01:46.002Z,9.757334
2022-08-16T04:02:47.128Z,9.757321
2022-08-16T04:03:46.014Z,9.757432
2022-08-16T04:04:46.004Z,9.757382
2022-08-16T04:05:46.986Z,9.757334
2022-08-16T04:06:45.947Z,9.757256
2022-08-16T04:07:45.938Z,9.757160
2022-08-16T04:08:45.962Z,9.757193
2022-08-16T04:09:45.922Z,9.757408
2022-08-16T04:10:45.919Z,9.757458
2022-08-16T04:11:47.911Z,9.757453
2022-08-16T04:12:53.244Z,9.757372
2022-08-16T04:14:00.192Z,9.757497
2022-08-16T04:14:48.222Z,9.757454
2022-08-16T04:15:45.868Z,9.757439
2022-08-16T04:16:45.858Z,9.757428
2022-08-16T04:17:45.849Z,9.757409
2022-08-16T04:18:46.136Z,9.757394
2022-08-16T04:19:46.461Z,9.757395
2022-08-16T04:20:45.827Z,9.757443
2022-08-16T04:21:47.630Z,9.757431
2022-08-16T04:22:45.856Z,9.757493
2022-08-16T04:23:45.795Z,9.757517
2022-08-16T04:24:54.361Z,9.757441
2022-08-16T04:25:47.030Z,9.757458
2022-08-16T04:26:46.573Z,9.757432
2022-08-16T04:27:54.363Z,9.757456
2022-08-16T04:28:53.630Z,9.757472
2022-08-16T04:29:46.777Z,9.757534
2022-08-16T04:30:46.737Z,9.757484
2022-08-16T04:31:45.762Z,9.757498
2022-08-16T04:32:49.177Z,9.757485
2022-08-16T04:33:51.249Z,9.757507
2022-08-16T04:34:46.734Z,9.757583
2022-08-16T04:35:49.516Z,9.757516
2022-08-16T04:36:45.687Z,9.757474
2022-08-16T04:37:45.675Z,9.757443
2022-08-16T04:38:45.669Z,9.757477
2022-08-16T04:39:55.103Z,9.757457
2022-08-16T04:40:46.740Z,9.757498
2022-08-16T04:41:45.649Z,9.757358
2022-08-16T04:42:45.632Z,9.757434
2022-08-16T04:43:45.638Z,9.757414
2022-08-16T04:44:53.508Z,9.757180
2022-08-16T04:45:46.603Z,9.757324
2022-08-16T04:47:02.458Z,9.757363
2022-08-16T04:47:46.609Z,9.757371
2022-08-16T04:48:46.593Z,9.757326
2022-08-16T04:49:46.334Z,9.757386
2022-08-16T04:50:45.570Z,9.757388
2022-08-16T04:51:45.566Z,9.757353
2022-08-16T04:52:46.571Z,9.757286
2022-08-16T04:53:45.550Z,9.757418
2022-08-16T04:54:45.575Z,9.757406
2022-08-16T04:55:45.532Z,9.757442
2022-08-16T04:56:46.229Z,9.757369
2022-08-16T04:57:45.510Z,9.757374
2022-08-16T04:58:47.120Z,9.757362
2022-08-16T04:59:46.555Z,9.757248
2022-08-16T05:00:45.484Z,9.757329
2022-08-16T05:01:57.910Z,9.757297
2022-08-16T05:02:46.503Z,9.757421
2022-08-16T05:04:00.994Z,9.757535
2022-08-16T05:04:46.503Z,9.757474
2022-08-16T05:05:58.974Z,9.757324
2022-08-16T05:06:46.437Z,9.757312
2022-08-16T05:07:58.390Z,9.757434
2022-08-16T05:08:47.272Z,9.757341
2022-08-16T05:09:49.135Z,9.757229
2022-08-16T05:10:45.407Z,9.757538
2022-08-16T05:11:45.402Z,9.757473
2022-08-16T05:12:45.393Z,9.757395
2022-08-16T05:13:45.378Z,9.757113
2022-08-16T05:15:01.697Z,9.757377
2022-08-16T05:15:46.374Z,9.757250
2022-08-16T05:16:45.352Z,9.757400
2022-08-16T05:17:45.348Z,9.757620
2022-08-16T05:18:45.341Z,9.757362
2022-08-16T05:19:46.817Z,9.757536
2022-08-16T05:21:01.729Z,9.757463
2022-08-16T05:21:46.394Z,9.757310
2022-08-16T05:22:45.523Z,9.757601
2022-08-16T05:23:51.776Z,9.757463
2022-08-16T05:24:47.315Z,9.757393
2022-08-16T05:25:48.274Z,9.757331
2022-08-16T05:26:51.564Z,9.757641
2022-08-16T05:27:46.273Z,9.757467
2022-08-16T05:28:45.266Z,9.757381
2022-08-16T05:29:59.256Z,9.757694
2022-08-16T05:30:50.362Z,9.757667
2022-08-16T05:31:48.401Z,9.757493
2022-08-16T05:32:47.543Z,9.757419
2022-08-16T05:33:45.224Z,9.757472
2022-08-16T05:34:46.249Z,9.757366
2022-08-16T05:35:54.799Z,9.757613
2022-08-16T05:36:46.208Z,9.757611
2022-08-16T05:37:45.186Z,9.757927
2022-08-16T05:38:45.179Z,9.757857
2022-08-16T05:39:45.230Z,9.757886
2022-08-16T05:40:57.124Z,9.757700
2022-08-16T05:41:46.158Z,9.757589
2022-08-16T05:42:47.763Z,9.757624
2022-08-16T05:43:47.566Z,9.757590
2022-08-16T05:44:45.162Z,9.757380
2022-08-16T05:45:45.125Z,9.757475
2022-08-16T05:46:46.121Z,9.757428
2022-08-16T05:47:45.117Z,9.757485
2022-08-16T05:48:45.101Z,9.757533
2022-08-16T05:49:46.122Z,9.757430
2022-08-16T05:50:45.083Z,9.757420
2022-08-16T05:51:46.101Z,9.757360
2022-08-16T05:52:45.114Z,9.757511
2022-08-16T05:53:45.069Z,9.757478
2022-08-16T05:54:47.770Z,9.757432
2022-08-16T05:55:46.078Z,9.757242
2022-08-16T05:56:45.029Z,9.757200
2022-08-16T05:57:45.022Z,9.758373
2022-08-16T05:58:46.014Z,9.758577
2022-08-16T05:59:45.004Z,9.758403
2022-08-16T06:00:45.030Z,9.758359
2022-08-16T06:01:45.033Z,9.758098
2022-08-16T06:02:45.024Z,9.758039
2022-08-16T06:03:44.981Z,9.757854
2022-08-16T06:04:45.663Z,9.757557
2022-08-16T06:05:44.998Z,9.757682
2022-08-16T06:06:56.175Z,9.757341
2022-08-16T06:07:45.946Z,9.757320
2022-08-16T06:08:46.569Z,9.757345
2022-08-16T06:09:44.925Z,9.757270
2022-08-16T06:11:10.519Z,9.757025
2022-08-16T06:11:45.906Z,9.756743
2022-08-16T06:12:44.908Z,9.756485
2022-08-16T06:13:44.937Z,9.756734
2022-08-16T06:14:44.879Z,9.756175
2022-08-16T06:15:44.957Z,9.757064
2022-08-16T06:16:44.863Z,9.756619
2022-08-16T06:17:45.852Z,9.757448
2022-08-16T06:18:44.850Z,9.757071
2022-08-16T06:19:44.836Z,9.757086
2022-08-16T06:20:55.456Z,9.757236
2022-08-16T06:21:45.827Z,9.757148
2022-08-16T06:22:47.850Z,9.757071
2022-08-16T06:23:45.813Z,9.757030
2022-08-16T06:24:53.621Z,9.757183
2022-08-16T06:25:52.893Z,9.757440
2022-08-16T06:26:57.460Z,9.757544
2022-08-16T06:27:57.484Z,9.757514
2022-08-16T06:28:45.765Z,9.757461
2022-08-16T06:29:50.054Z,9.757518
2022-08-16T06:30:45.787Z,9.757505
2022-08-16T06:31:48.757Z,9.757412
2022-08-16T06:32:48.578Z,9.757314
2022-08-16T06:33:45.132Z,9.757397
2022-08-16T06:34:56.683Z,9.757383
2022-08-16T06:35:45.735Z,9.757459
2022-08-16T06:36:44.705Z,9.757339
2022-08-16T06:37:47.519Z,9.757454
2022-08-16T06:38:55.791Z,9.757486
2022-08-16T06:39:49.832Z,9.758800
2022-08-16T06:40:45.856Z,9.757822
2022-08-16T06:41:44.693Z,9.757629
2022-08-16T06:42:47.995Z,9.757603
2022-08-16T06:43:44.645Z,9.757516
2022-08-16T06:44:44.638Z,9.757461
2022-08-16T06:45:44.663Z,9.757449
2022-08-16T06:46:44.633Z,9.757381
2022-08-16T06:47:53.339Z,9.757573
2022-08-16T06:48:49.646Z,9.757478
2022-08-16T06:49:53.862Z,9.757481
2022-08-16T06:50:45.632Z,9.757595
2022-08-16T06:51:46.612Z,9.757457
2022-08-16T06:52:57.566Z,9.757423
2022-08-16T06:53:45.559Z,9.757486
2022-08-16T06:54:49.814Z,9.757500
2022-08-16T06:55:45.583Z,9.757501
2022-08-16T06:56:44.537Z,9.757580
2022-08-16T06:57:44.539Z,9.757376
2022-08-16T06:58:44.986Z,9.757424
2022-08-16T06:59:52.273Z,9.757530
2022-08-16T07:00:45.591Z,9.757466
2022-08-16T07:01:54.587Z,9.757579
2022-08-16T07:02:51.813Z,9.757668
2022-08-16T07:03:55.241Z,9.757566
2022-08-16T07:04:45.482Z,9.757518
2022-08-16T07:05:44.512Z,9.757518
2022-08-16T07:06:44.958Z,9.757541
2022-08-16T07:07:44.459Z,9.757406
2022-08-16T07:08:44.451Z,9.757408
2022-08-16T07:09:44.449Z,9.757448
2022-08-16T07:10:44.474Z,9.757491
2022-08-16T07:11:48.026Z,9.757466
2022-08-16T07:12:47.336Z,9.757430
2022-08-16T07:14:00.333Z,9.757448
2022-08-16T07:14:46.419Z,9.757476
2022-08-16T07:15:50.638Z,9.757476
2022-08-16T07:16:45.403Z,9.757457
2022-08-16T07:17:44.380Z,9.757508
2022-08-16T07:18:58.653Z,9.757470
2022-08-16T07:20:29.532Z,9.757446
2022-08-16T07:20:47.259Z,9.757483
2022-08-16T07:21:46.516Z,9.757485
2022-08-16T07:22:50.822Z,9.757477
2022-08-16T07:23:45.378Z,9.757483
2022-08-16T07:24:45.770Z,9.757552
2022-08-16T07:25:44.316Z,9.757476
2022-08-16T07:26:48.445Z,9.757488
2022-08-16T07:27:44.303Z,9.757478
2022-08-16T07:28:44.330Z,9.757447
2022-08-16T07:29:44.298Z,9.757418
2022-08-16T07:30:46.544Z,9.757378
2022-08-16T07:31:44.328Z,9.757479
2022-08-16T07:32:51.654Z,9.757504
2022-08-16T07:33:52.173Z,9.757443
2022-08-16T07:34:48.195Z,9.757434
2022-08-16T07:35:49.464Z,9.757443
2022-08-16T07:36:45.278Z,9.757402
2022-08-16T07:37:45.222Z,9.757500
2022-08-16T07:38:44.228Z,9.757495
2022-08-16T07:39:44.258Z,9.757499
2022-08-16T07:41:00.165Z,9.757355
2022-08-16T07:41:46.224Z,9.757404
2022-08-16T07:42:44.216Z,9.757530
2022-08-16T07:43:44.179Z,9.757485
2022-08-16T07:44:50.274Z,9.757462
2022-08-16T07:45:49.446Z,9.757638
2022-08-16T07:46:45.185Z,9.757595
2022-08-16T07:47:44.160Z,9.757553
2022-08-16T07:48:44.145Z,9.757555
2022-08-16T07:49:53.393Z,9.757341
2022-08-16T07:50:56.726Z,9.757391
2022-08-16T07:51:45.144Z,9.757396
2022-08-16T07:52:44.126Z,9.757460
2022-08-16T07:53:44.096Z,9.757519
2022-08-16T07:54:45.679Z,9.757590
2022-08-16T07:55:47.689Z,9.757498
2022-08-16T07:56:44.171Z,9.757595
2022-08-16T07:57:55.885Z,9.757540
2022-08-16T07:58:45.057Z,9.757642
2022-08-16T07:59:45.953Z,9.757404
2022-08-16T08:00:44.171Z,9.757464
2022-08-16T08:01:45.080Z,9.757503
2022-08-16T08:02:44.042Z,9.757321
2022-08-16T08:03:48.457Z,9.757240
2022-08-16T08:04:46.019Z,9.757318
2022-08-16T08:05:44.004Z,9.757443
2022-08-16T08:06:44.032Z,9.757366
2022-08-16T08:07:45.306Z,9.757530
2022-08-16T08:08:50.933Z,9.757508
2022-08-16T08:09:45.925Z,9.757543
2022-08-16T08:10:43.970Z,9.757509
2022-08-16T08:12:00.717Z,9.757450
2022-08-16T08:12:44.965Z,9.757443
2022-08-16T08:13:43.962Z,9.757547
2022-08-16T08:14:43.937Z,9.757499
2022-08-16T08:15:52.629Z,9.757508
2022-08-16T08:16:45.588Z,9.757512
2022-08-16T08:17:44.207Z,9.757470
2022-08-16T08:18:50.459Z,9.757626
2022-08-16T08:19:44.904Z,9.757685
2022-08-16T08:20:44.923Z,9.757744
2022-08-16T08:21:59.559Z,9.757421
2022-08-16T08:22:44.886Z,9.757440
2022-08-16T08:23:43.873Z,9.757380
2022-08-16T08:24:44.314Z,9.757529
2022-08-16T08:25:53.643Z,9.757529
2022-08-16T08:26:50.077Z,9.757484
2022-08-16T08:27:44.205Z,9.757464
2022-08-16T08:28:43.844Z,9.757439
2022-08-16T08:29:43.833Z,9.757562
2022-08-16T08:30:52.295Z,9.757542
2022-08-16T08:31:44.841Z,9.757568
2022-08-16T08:32:58.460Z,9.757653
2022-08-16T08:33:47.313Z,9.757747
2022-08-16T08:34:46.556Z,9.757519
2022-08-16T08:35:43.790Z,9.757508
2022-08-16T08:36:43.812Z,9.757256
2022-08-16T08:37:54.044Z,9.757594
2022-08-16T08:38:45.781Z,9.757519
2022-08-16T08:39:55.262Z,9.757504
2022-08-16T08:40:44.766Z,9.757778
2022-08-16T08:41:43.804Z,9.757586
2022-08-16T08:42:43.796Z,9.757437
2022-08-16T08:43:43.762Z,9.757656
2022-08-16T08:44:43.722Z,9.757681
2022-08-16T08:45:47.215Z,9.757526
2022-08-16T08:47:00.057Z,9.757577
2022-08-16T08:47:44.705Z,9.757567
2022-08-16T08:48:44.701Z,9.757586
2022-08-16T08:49:55.045Z,9.757627
2022-08-16T08:50:46.653Z,9.757680
2022-08-16T08:51:44.693Z,9.757730
2022-08-16T08:52:43.672Z,9.757618
2022-08-16T08:53:43.654Z,9.757540
2022-08-16T08:54:43.685Z,9.757493
2022-08-16T08:55:43.649Z,9.757494
2022-08-16T08:56:45.360Z,9.757531
2022-08-16T08:57:43.651Z,9.757678
2022-08-16T08:58:54.941Z,9.757668
2022-08-16T08:59:44.621Z,9.757633
2022-08-16T09:00:50.929Z,9.757546
2022-08-16T09:01:56.509Z,9.757509
2022-08-16T09:02:45.611Z,9.757514
2022-08-16T09:03:44.628Z,9.757550
2022-08-16T09:04:43.588Z,9.757774
2022-08-16T09:05:44.138Z,9.757620
2022-08-16T09:06:44.599Z,9.757665
2022-08-16T09:08:01.650Z,9.757698
2022-08-16T09:08:47.477Z,9.757757
2022-08-16T09:09:43.568Z,9.757831
2022-08-16T09:10:43.540Z,9.757960
2022-08-16T09:11:43.560Z,9.758011
2022-08-16T09:12:46.587Z,9.757961
2022-08-16T09:13:47.234Z,9.758121
2022-08-16T09:14:49.489Z,9.758147
2022-08-16T09:15:44.502Z,9.758206
2022-08-16T09:17:01.043Z,9.758474
2022-08-16T09:17:51.548Z,9.758290
2022-08-16T09:18:45.516Z,9.758389
2022-08-16T09:19:43.483Z,9.757918
2022-08-16T09:20:58.894Z,9.757867
2022-08-16T09:21:44.491Z,9.757712
2022-08-16T09:22:51.308Z,9.757866
2022-08-16T09:23:44.446Z,9.758024
2022-08-16T09:24:51.585Z,9.757958
2022-08-16T09:25:44.433Z,9.757980
2022-08-16T09:26:45.604Z,9.757752
2022-08-16T09:27:57.311Z,9.757531
2022-08-16T09:29:14.475Z,9.757477
2022-08-16T09:29:45.667Z,9.757545
2022-08-16T09:30:44.953Z,9.758064
2022-08-16T09:31:43.405Z,9.757915
2022-08-16T09:32:47.005Z,9.757579
2022-08-16T09:33:43.388Z,9.757445
2022-08-16T09:34:43.380Z,9.757428
2022-08-16T09:35:43.370Z,9.757480
2022-08-16T09:36:45.062Z,9.757403
2022-08-16T09:37:43.391Z,9.757483
2022-08-16T09:38:44.361Z,9.757582
2022-08-16T09:39:46.991Z,9.757526
2022-08-16T09:40:45.433Z,9.757684
2022-08-16T09:41:43.335Z,9.757701
2022-08-16T09:42:56.532Z,9.757588
2022-08-16T09:43:58.122Z,9.757663
2022-08-16T09:45:11.907Z,9.757623
2022-08-16T09:45:44.303Z,9.757405
2022-08-16T09:46:48.527Z,9.757399
2022-08-16T09:47:56.785Z,9.757455
2022-08-16T09:48:51.024Z,9.757482
2022-08-16T09:49:44.283Z,9.757648
2022-08-16T09:50:44.283Z,9.757723
2022-08-16T09:51:43.264Z,9.757829
2022-08-16T09:52:47.963Z,9.757634
2022-08-16T09:53:44.259Z,9.757580
2022-08-16T09:54:45.261Z,9.757669
2022-08-16T09:55:44.665Z,9.759047
2022-08-16T09:56:53.455Z,9.758927
2022-08-16T09:57:53.175Z,9.758346
2022-08-16T09:59:05.429Z,9.758290
2022-08-16T09:59:44.209Z,9.758100
2022-08-16T10:00:45.053Z,9.757939
2022-08-16T10:01:43.592Z,9.757923
2022-08-16T10:02:44.427Z,9.757787
2022-08-16T10:04:02.084Z,9.757622
2022-08-16T10:04:54.518Z,9.757469
2022-08-16T10:05:45.166Z,9.757449
2022-08-16T10:06:46.198Z,9.757441
2022-08-16T10:07:44.967Z,9.757442
2022-08-16T10:09:05.226Z,9.757400
2022-08-16T10:09:53.707Z,9.757351
2022-08-16T10:10:44.137Z,9.757331
2022-08-16T10:11:50.080Z,9.757242
2022-08-16T10:12:45.380Z,9.757355
2022-08-16T10:13:43.114Z,9.757455
2022-08-16T10:14:46.080Z,9.757409
2022-08-16T10:15:43.106Z,9.757426
2022-08-16T10:16:44.096Z,9.757444
2022-08-16T10:17:43.113Z,9.757477
2022-08-16T10:19:02.320Z,9.757401
2022-08-16T10:19:44.080Z,9.757387
2022-08-16T10:20:43.071Z,9.757530
2022-08-16T10:21:43.075Z,9.757457
2022-08-16T10:22:43.098Z,9.757394
2022-08-16T10:23:43.317Z,9.757417
2022-08-16T10:24:55.704Z,9.757435
2022-08-16T10:27:16.210Z,9.757406
2022-08-16T10:27:16.382Z,9.757421
2022-08-16T10:27:56.853Z,9.757359
2022-08-16T10:28:44.191Z,9.757400
2022-08-16T10:30:01.329Z,9.757443
2022-08-16T10:30:43.998Z,9.757383
2022-08-16T10:31:44.171Z,9.757467
2022-08-16T10:32:43.057Z,9.757481
2022-08-16T10:33:42.971Z,9.757619
2022-08-16T10:34:42.963Z,9.757419
2022-08-16T10:35:46.565Z,9.757450
2022-08-16T10:36:42.975Z,9.757334
2022-08-16T10:37:43.037Z,9.757051
2022-08-16T10:38:42.941Z,9.757410
2022-08-16T10:39:42.982Z,9.757395
2022-08-16T10:40:45.551Z,9.757457
2022-08-16T10:41:42.924Z,9.757427
2022-08-16T10:42:42.936Z,9.757425
2022-08-16T10:43:42.914Z,9.757388
2022-08-16T10:44:42.896Z,9.757363
2022-08-16T10:45:43.896Z,9.757280
2022-08-16T10:46:43.884Z,9.757336
2022-08-16T10:47:42.910Z,9.757513
2022-08-16T10:48:47.204Z,9.757408
2022-08-16T10:49:43.862Z,9.757321
2022-08-16T10:50:42.849Z,9.757516
2022-08-16T10:52:01.141Z,9.757540
2022-08-16T10:52:43.877Z,9.757451
2022-08-16T10:53:42.829Z,9.757573
2022-08-16T10:54:58.944Z,9.757504
2022-08-16T10:55:46.103Z,9.757437
2022-08-16T10:56:55.276Z,9.757483
2022-08-16T10:57:43.911Z,9.757552
2022-08-16T10:58:42.806Z,9.757792
2022-08-16T10:59:51.901Z,9.757705
2022-08-16T11:00:43.788Z,9.757821
2022-08-16T11:01:44.002Z,9.757808
2022-08-16T11:02:59.019Z,9.757702
2022-08-16T11:03:45.794Z,9.757584
2022-08-16T11:06:00.252Z,9.756741
2022-08-16T11:07:06.598Z,9.758233
2022-08-16T11:07:51.348Z,9.757310
2022-08-16T11:08:45.773Z,9.757504
2022-08-16T11:09:44.103Z,9.757560
2022-08-16T11:11:04.532Z,9.757396
2022-08-16T11:12:14.951Z,9.757506
2022-08-16T11:12:44.767Z,9.757586
2022-08-16T11:13:59.614Z,9.757803
2022-08-16T11:15:49.819Z,9.757557
2022-08-16T11:17:45.155Z,9.757608
2022-08-16T11:19:02.886Z,9.757712
2022-08-16T11:20:49.344Z,9.757687
2022-08-16T11:22:48.744Z,9.757648
2022-08-16T11:23:58.101Z,9.757636
2022-08-16T11:24:45.143Z,9.757813
2022-08-16T11:26:44.890Z,9.757977
2022-08-16T11:27:43.644Z,9.757880
2022-08-16T11:29:44.598Z,9.757679
2022-08-16T11:30:42.594Z,9.757796
2022-08-16T11:31:45.608Z,9.757773
2022-08-16T11:32:42.604Z,9.757722
2022-08-16T11:33:57.863Z,9.757683
2022-08-16T11:35:09.868Z,9.757779
2022-08-16T11:36:21.870Z,9.757586
2022-08-16T11:36:53.907Z,9.757583
2022-08-16T11:38:51.527Z,9.757644
2022-08-16T11:39:43.594Z,9.757622
2022-08-16T11:40:44.195Z,9.757613
2022-08-16T11:41:43.545Z,9.757552
2022-08-16T11:42:42.546Z,9.757435
2022-08-16T11:43:42.535Z,9.757541
2022-08-16T11:44:52.762Z,9.757553
2022-08-16T11:45:43.515Z,9.757685
2022-08-16T11:46:46.863Z,9.757589
2022-08-16T11:47:42.507Z,9.757697
2022-08-16T11:48:42.475Z,9.757682
2022-08-16T11:49:42.482Z,9.757613
2022-08-16T11:50:42.471Z,9.757640
2022-08-16T11:51:42.458Z,9.757593
2022-08-16T11:52:46.612Z,9.757614